Terminal Aerodrome Forecast
Issued by NWS Cleveland, OH

Home | Current Version | Previous Version | Graphics & Text | Print | Product List | Glossary On
Versions: 1 2 3 4 5 6 7 8 9 10 11 12 13 14 15 16 17 18
211
FTUS41 KCLE 061136
TAFYNG
TAF
KYNG 061136Z 0612/0712 09010KT P6SM OVC150
     FM061600 08008KT 5SM -RA OVC025
     FM061800 09010KT 3SM -RA BR OVC008
     FM062000 12010G18KT 2SM -RA BR OVC004
     FM070300 24010KT P6SM OVC010
     FM071000 27010KT P6SM OVC025=

USA.gov is the U.S. government's official web portal to all federal, state and local government web resources and services.